< Typhoon 201324 2013 Season Typhoon 201326 >
Typhoon 201325 (NARI)
General InformationTrack Information on Google MapsDetailed Wind InformationForecast History on Google MapsAccess Analytics MapList of All Images || NewsDisaster Info.WeblogTrackbackTyphoon FrontTwiphoonTyphoon Now!Typhoon ImaginationDisaster Info. XMLResourceGoogle EarthGE AnimationAtom FeedGeoJSON
Detalied Best Track (Time Zone = UTC)
Year Month Day Hour Lat. Long. Pressure (hPa) Wind (kt) Class Image Chart
2013 10 8 12 14.0 131.6 1004 0 2 Image Chart
2013 10 8 18 14.1 131.1 1004 0 2 Image Chart
2013 10 9 00 14.1 130.3 1004 0 2 Image Chart
2013 10 9 06 14.2 129.5 1000 0 2 Image Chart
2013 10 9 12 14.5 128.9 998 35 3 Image Chart
2013 10 9 18 14.8 128.3 994 40 3 Image Chart
2013 10 10 00 15.1 127.8 992 45 3 Image Chart
2013 10 10 06 15.3 126.9 990 50 4 Image Chart
2013 10 10 12 15.3 126.1 980 60 4 Image Chart
2013 10 10 18 15.3 125.4 975 65 5 Image Chart
2013 10 11 00 15.3 124.5 970 70 5 Image Chart
2013 10 11 06 15.3 123.3 970 70 5 Image Chart
2013 10 11 12 15.4 122.4 970 70 5 Image Chart
2013 10 11 18 15.5 120.5 975 65 5 Image Chart
2013 10 12 00 15.2 119.0 975 65 5 Image Chart
2013 10 12 06 15.2 118.2 970 70 5 Image Chart
2013 10 12 12 15.0 117.0 970 70 5 Image Chart
2013 10 12 18 15.1 115.7 965 75 5 Image Chart
2013 10 13 00 15.3 114.7 965 75 5 Image Chart
2013 10 13 06 15.3 113.6 965 75 5 Image Chart
2013 10 13 12 15.2 112.8 965 75 5 Image Chart
2013 10 13 18 15.3 112.1 965 75 5 Image Chart
2013 10 14 00 15.5 111.3 965 75 5 Image Chart
2013 10 14 06 15.9 110.7 965 75 5 Image Chart
2013 10 14 12 16.3 110.0 970 70 5 Image Chart
2013 10 14 18 16.0 109.2 975 65 5 Image Chart
2013 10 15 00 15.5 108.4 985 50 4 Image Chart
2013 10 15 06 15.5 107.5 994 40 3 Image Chart
2013 10 15 12 15.4 106.4 998 35 3 Image Chart
2013 10 15 18 15.4 105.1 1000 0 2 Image Chart
2013 10 16 00 15.5 104.1 1004 0 2 Image Chart
2013 10 16 06 15.8 103.3 1004 0 2 Image Chart
2013 10 16 12 16.5 102.4 1006 0 2 Image Chart
Japan Meteorological Agency Best Track Data | Correction Date : 2013-11-18
< Typhoon 201324 2013 Season Typhoon 201326 >

Help